sensor_id;sensor_type;location;lat;lon;timestamp;pressure;altitude;pressure_sealevel;temperature;humidity
55755;BME280;41674;52.290;-1.474;2023-02-28T00:00:50;102809.14;;;5.74;72.83
55755;BME280;41674;52.290;-1.474;2023-02-28T00:03:20;102810.54;;;5.75;72.70
55755;BME280;41674;52.290;-1.474;2023-02-28T00:05:49;102812.30;;;5.40;72.88
55755;BME280;41674;52.290;-1.474;2023-02-28T00:08:19;102812.24;;;5.58;72.88
55755;BME280;41674;52.290;-1.474;2023-02-28T00:10:49;102817.36;;;5.23;73.89
55755;BME280;41674;52.290;-1.474;2023-02-28T00:13:19;102816.22;;;5.31;73.84
55755;BME280;41674;52.290;-1.474;2023-02-28T00:15:59;102817.48;;;5.29;73.97
55755;BME280;41674;52.290;-1.474;2023-02-28T00:18:18;102817.04;;;5.43;73.59
55755;BME280;41674;52.290;-1.474;2023-02-28T00:20:48;102822.52;;;5.29;73.19
55755;BME280;41674;52.290;-1.474;2023-02-28T00:23:17;102824.33;;;5.41;73.26
55755;BME280;41674;52.290;-1.474;2023-02-28T00:25:47;102827.32;;;4.99;74.11
55755;BME280;41674;52.290;-1.474;2023-02-28T00:28:17;102828.13;;;4.98;73.87
55755;BME280;41674;52.290;-1.474;2023-02-28T00:30:46;102827.34;;;4.48;75.40
55755;BME280;41674;52.290;-1.474;2023-02-28T00:33:16;102827.89;;;4.76;75.41
55755;BME280;41674;52.290;-1.474;2023-02-28T00:35:46;102831.49;;;5.18;74.92
55755;BME280;41674;52.290;-1.474;2023-02-28T00:38:16;102831.32;;;4.46;75.71
55755;BME280;41674;52.290;-1.474;2023-02-28T00:40:45;102833.49;;;5.15;75.12
55755;BME280;41674;52.290;-1.474;2023-02-28T00:43:15;102840.30;;;5.01;74.35
55755;BME280;41674;52.290;-1.474;2023-02-28T00:45:45;102838.85;;;4.76;74.48
55755;BME280;41674;52.290;-1.474;2023-02-28T00:48:14;102840.76;;;5.04;74.08
55755;BME280;41674;52.290;-1.474;2023-02-28T00:50:44;102839.90;;;5.04;73.81
55755;BME280;41674;52.290;-1.474;2023-02-28T00:53:14;102841.29;;;4.64;73.33
55755;BME280;41674;52.290;-1.474;2023-02-28T00:55:44;102842.87;;;4.78;73.84
55755;BME280;41674;52.290;-1.474;2023-02-28T00:58:13;102846.65;;;4.89;73.97
55755;BME280;41674;52.290;-1.474;2023-02-28T01:00:43;102845.79;;;4.97;73.57
55755;BME280;41674;52.290;-1.474;2023-02-28T01:03:13;102848.15;;;5.13;73.14
55755;BME280;41674;52.290;-1.474;2023-02-28T01:05:43;102847.82;;;5.05;73.94
55755;BME280;41674;52.290;-1.474;2023-02-28T01:08:13;102847.99;;;4.71;73.74
55755;BME280;41674;52.290;-1.474;2023-02-28T01:10:42;102850.12;;;4.39;74.97
55755;BME280;41674;52.290;-1.474;2023-02-28T01:13:12;102851.55;;;3.95;76.79
55755;BME280;41674;52.290;-1.474;2023-02-28T01:15:45;102851.54;;;3.97;78.77
55755;BME280;41674;52.290;-1.474;2023-02-28T01:18:11;102851.79;;;4.27;78.18
55755;BME280;41674;52.290;-1.474;2023-02-28T01:20:41;102861.29;;;3.13;82.16
55755;BME280;41674;52.290;-1.474;2023-02-28T01:23:10;102856.25;;;4.76;77.72
55755;BME280;41674;52.290;-1.474;2023-02-28T01:25:40;102856.90;;;4.70;77.76
55755;BME280;41674;52.290;-1.474;2023-02-28T01:28:10;102860.40;;;4.94;77.52
55755;BME280;41674;52.290;-1.474;2023-02-28T01:30:40;102854.08;;;5.10;77.44
55755;BME280;41674;52.290;-1.474;2023-02-28T01:33:09;102855.90;;;5.25;77.61
55755;BME280;41674;52.290;-1.474;2023-02-28T01:35:39;102859.80;;;5.20;77.78
55755;BME280;41674;52.290;-1.474;2023-02-28T01:38:09;102860.39;;;5.34;77.55
55755;BME280;41674;52.290;-1.474;2023-02-28T01:40:38;102861.56;;;5.21;78.43
55755;BME280;41674;52.290;-1.474;2023-02-28T01:43:19;102854.60;;;5.53;77.63
55755;BME280;41674;52.290;-1.474;2023-02-28T01:45:37;102857.71;;;5.73;77.26
55755;BME280;41674;52.290;-1.474;2023-02-28T01:48:08;102857.91;;;5.82;77.29
55755;BME280;41674;52.290;-1.474;2023-02-28T01:50:40;102852.29;;;5.73;78.26
55755;BME280;41674;52.290;-1.474;2023-02-28T01:53:10;102857.35;;;6.13;77.44
55755;BME280;41674;52.290;-1.474;2023-02-28T01:55:37;102857.92;;;5.80;77.15
55755;BME280;41674;52.290;-1.474;2023-02-28T01:58:07;102858.43;;;6.12;76.87
55755;BME280;41674;52.290;-1.474;2023-02-28T02:00:36;102857.28;;;6.02;76.60
55755;BME280;41674;52.290;-1.474;2023-02-28T02:03:08;102860.35;;;6.12;76.90
55755;BME280;41674;52.290;-1.474;2023-02-28T02:05:37;102858.22;;;6.20;77.02
55755;BME280;41674;52.290;-1.474;2023-02-28T02:08:06;102856.94;;;6.24;76.82
55755;BME280;41674;52.290;-1.474;2023-02-28T02:10:36;102856.34;;;6.25;76.44
55755;BME280;41674;52.290;-1.474;2023-02-28T02:13:15;102859.16;;;6.28;76.59
55755;BME280;41674;52.290;-1.474;2023-02-28T02:15:39;102857.48;;;6.34;76.66
55755;BME280;41674;52.290;-1.474;2023-02-28T02:18:11;102857.36;;;6.40;76.61
55755;BME280;41674;52.290;-1.474;2023-02-28T02:20:49;102855.99;;;5.85;77.63
55755;BME280;41674;52.290;-1.474;2023-02-28T02:25:35;102847.20;;;6.13;76.75
55755;BME280;41674;52.290;-1.474;2023-02-28T02:28:22;102843.90;;;6.26;76.55
55755;BME280;41674;52.290;-1.474;2023-02-28T02:30:43;102849.00;;;6.09;76.34
55755;BME280;41674;52.290;-1.474;2023-02-28T02:35:34;102850.34;;;5.91;76.43
55755;BME280;41674;52.290;-1.474;2023-02-28T02:38:06;102851.13;;;6.08;76.01
55755;BME280;41674;52.290;-1.474;2023-02-28T02:40:35;102847.43;;;6.13;76.13
55755;BME280;41674;52.290;-1.474;2023-02-28T02:43:02;102842.29;;;6.26;76.31
55755;BME280;41674;52.290;-1.474;2023-02-28T02:45:33;102841.27;;;6.74;76.58
55755;BME280;41674;52.290;-1.474;2023-02-28T02:48:00;102837.08;;;6.50;76.86
55755;BME280;41674;52.290;-1.474;2023-02-28T02:50:33;102835.66;;;6.41;76.89
55755;BME280;41674;52.290;-1.474;2023-02-28T02:53:01;102836.90;;;6.22;76.67
55755;BME280;41674;52.290;-1.474;2023-02-28T02:55:28;102835.56;;;6.36;76.52
55755;BME280;41674;52.290;-1.474;2023-02-28T02:58:01;102826.83;;;6.10;75.83
55755;BME280;41674;52.290;-1.474;2023-02-28T03:00:31;102824.15;;;6.33;75.79
55755;BME280;41674;52.290;-1.474;2023-02-28T03:02:57;102828.13;;;6.18;76.40
55755;BME280;41674;52.290;-1.474;2023-02-28T03:05:29;102828.53;;;6.26;76.17
55755;BME280;41674;52.290;-1.474;2023-02-28T03:07:56;102829.13;;;6.15;76.14
55755;BME280;41674;52.290;-1.474;2023-02-28T03:10:31;102828.08;;;6.31;76.65
55755;BME280;41674;52.290;-1.474;2023-02-28T03:13:05;102821.25;;;6.07;76.64
55755;BME280;41674;52.290;-1.474;2023-02-28T03:15:29;102822.44;;;6.20;77.19
55755;BME280;41674;52.290;-1.474;2023-02-28T03:18:01;102822.90;;;6.04;77.02
55755;BME280;41674;52.290;-1.474;2023-02-28T03:20:35;102822.64;;;6.19;76.49
55755;BME280;41674;52.290;-1.474;2023-02-28T03:23:03;102819.43;;;6.28;77.35
55755;BME280;41674;52.290;-1.474;2023-02-28T03:25:31;102820.39;;;6.05;77.78
55755;BME280;41674;52.290;-1.474;2023-02-28T03:28:01;102820.62;;;5.85;77.37
55755;BME280;41674;52.290;-1.474;2023-02-28T03:30:26;102817.75;;;6.37;76.78
55755;BME280;41674;52.290;-1.474;2023-02-28T03:32:59;102821.29;;;6.38;76.84
55755;BME280;41674;52.290;-1.474;2023-02-28T03:35:24;102824.15;;;6.08;77.06
55755;BME280;41674;52.290;-1.474;2023-02-28T03:37:58;102826.56;;;6.27;77.59
55755;BME280;41674;52.290;-1.474;2023-02-28T03:40:25;102830.11;;;6.24;77.16
55755;BME280;41674;52.290;-1.474;2023-02-28T03:42:54;102829.08;;;6.53;77.04
55755;BME280;41674;52.290;-1.474;2023-02-28T03:45:23;102830.64;;;6.68;76.62
55755;BME280;41674;52.290;-1.474;2023-02-28T03:47:53;102831.24;;;6.63;76.68
55755;BME280;41674;52.290;-1.474;2023-02-28T03:50:23;102835.01;;;6.43;76.70
55755;BME280;41674;52.290;-1.474;2023-02-28T03:52:53;102836.80;;;6.51;76.45
55755;BME280;41674;52.290;-1.474;2023-02-28T03:55:20;102835.29;;;6.52;76.65
55755;BME280;41674;52.290;-1.474;2023-02-28T03:57:56;102833.68;;;6.56;76.75
55755;BME280;41674;52.290;-1.474;2023-02-28T04:00:21;102830.39;;;6.61;76.98
55755;BME280;41674;52.290;-1.474;2023-02-28T04:02:49;102826.69;;;6.65;77.33
55755;BME280;41674;52.290;-1.474;2023-02-28T04:05:18;102828.50;;;6.67;77.39
55755;BME280;41674;52.290;-1.474;2023-02-28T04:07:48;102828.49;;;7.11;77.69
55755;BME280;41674;52.290;-1.474;2023-02-28T04:10:18;102827.71;;;6.65;77.67
55755;BME280;41674;52.290;-1.474;2023-02-28T04:12:47;102829.88;;;6.73;77.51
55755;BME280;41674;52.290;-1.474;2023-02-28T04:15:16;102831.63;;;6.70;77.86
55755;BME280;41674;52.290;-1.474;2023-02-28T04:17:46;102833.18;;;6.62;78.65
55755;BME280;41674;52.290;-1.474;2023-02-28T04:20:16;102835.23;;;6.76;78.41
55755;BME280;41674;52.290;-1.474;2023-02-28T04:22:45;102833.55;;;6.62;78.98
55755;BME280;41674;52.290;-1.474;2023-02-28T04:25:15;102831.81;;;6.65;79.21
55755;BME280;41674;52.290;-1.474;2023-02-28T04:27:45;102833.81;;;6.92;80.73
55755;BME280;41674;52.290;-1.474;2023-02-28T04:30:14;102835.56;;;6.57;80.14
55755;BME280;41674;52.290;-1.474;2023-02-28T04:32:43;102837.62;;;6.47;82.56
55755;BME280;41674;52.290;-1.474;2023-02-28T04:35:12;102836.01;;;6.21;81.99
55755;BME280;41674;52.290;-1.474;2023-02-28T04:37:42;102836.20;;;6.02;83.00
55755;BME280;41674;52.290;-1.474;2023-02-28T04:40:11;102833.66;;;6.19;82.37
55755;BME280;41674;52.290;-1.474;2023-02-28T04:42:41;102831.54;;;6.26;82.22
55755;BME280;41674;52.290;-1.474;2023-02-28T04:45:11;102834.94;;;6.38;82.02
55755;BME280;41674;52.290;-1.474;2023-02-28T04:47:40;102834.83;;;6.63;83.07
55755;BME280;41674;52.290;-1.474;2023-02-28T04:50:10;102830.43;;;6.49;81.59
55755;BME280;41674;52.290;-1.474;2023-02-28T04:52:39;102832.98;;;6.57;81.57
55755;BME280;41674;52.290;-1.474;2023-02-28T04:55:08;102834.80;;;6.23;82.95
55755;BME280;41674;52.290;-1.474;2023-02-28T04:57:37;102836.62;;;6.47;82.67
55755;BME280;41674;52.290;-1.474;2023-02-28T05:00:08;102836.30;;;6.62;82.36
55755;BME280;41674;52.290;-1.474;2023-02-28T05:02:36;102841.51;;;6.29;82.46
55755;BME280;41674;52.290;-1.474;2023-02-28T05:05:06;102844.52;;;6.43;82.59
55755;BME280;41674;52.290;-1.474;2023-02-28T05:07:35;102843.07;;;6.68;80.93
55755;BME280;41674;52.290;-1.474;2023-02-28T05:10:05;102847.58;;;6.69;80.69
55755;BME280;41674;52.290;-1.474;2023-02-28T05:12:34;102848.21;;;6.25;81.92
55755;BME280;41674;52.290;-1.474;2023-02-28T05:15:04;102847.04;;;6.49;81.29
55755;BME280;41674;52.290;-1.474;2023-02-28T05:17:33;102849.05;;;6.47;81.70
55755;BME280;41674;52.290;-1.474;2023-02-28T05:20:03;102847.68;;;6.20;82.73
55755;BME280;41674;52.290;-1.474;2023-02-28T05:22:31;102847.36;;;6.04;82.73
55755;BME280;41674;52.290;-1.474;2023-02-28T05:25:01;102847.20;;;5.65;84.79
55755;BME280;41674;52.290;-1.474;2023-02-28T05:27:30;102843.26;;;6.13;83.50
55755;BME280;41674;52.290;-1.474;2023-02-28T05:30:00;102846.55;;;5.60;85.76
55755;BME280;41674;52.290;-1.474;2023-02-28T05:32:30;102851.46;;;5.87;85.13
55755;BME280;41674;52.290;-1.474;2023-02-28T05:34:59;102858.22;;;3.79;92.82
55755;BME280;41674;52.290;-1.474;2023-02-28T05:37:30;102859.46;;;5.63;87.36
55755;BME280;41674;52.290;-1.474;2023-02-28T05:39:58;102864.81;;;5.36;85.51
55755;BME280;41674;52.290;-1.474;2023-02-28T05:42:28;102865.05;;;6.35;83.93
55755;BME280;41674;52.290;-1.474;2023-02-28T05:44:57;102864.84;;;5.62;86.26
55755;BME280;41674;52.290;-1.474;2023-02-28T05:47:26;102858.16;;;5.99;83.98
55755;BME280;41674;52.290;-1.474;2023-02-28T05:49:56;102858.94;;;6.18;82.98
55755;BME280;41674;52.290;-1.474;2023-02-28T05:52:26;102866.66;;;6.31;82.59
55755;BME280;41674;52.290;-1.474;2023-02-28T05:54:55;102865.53;;;6.34;82.70
55755;BME280;41674;52.290;-1.474;2023-02-28T05:57:24;102867.97;;;6.58;81.39
55755;BME280;41674;52.290;-1.474;2023-02-28T05:59:54;102869.38;;;6.42;81.88
55755;BME280;41674;52.290;-1.474;2023-02-28T06:02:24;102872.57;;;6.81;80.64
55755;BME280;41674;52.290;-1.474;2023-02-28T06:04:53;102876.15;;;5.17;85.65
55755;BME280;41674;52.290;-1.474;2023-02-28T06:07:23;102875.24;;;5.78;84.47
55755;BME280;41674;52.290;-1.474;2023-02-28T06:09:52;102875.05;;;5.93;84.37
55755;BME280;41674;52.290;-1.474;2023-02-28T06:12:22;102875.94;;;4.18;90.30
55755;BME280;41674;52.290;-1.474;2023-02-28T06:14:52;102875.13;;;4.28;90.03
55755;BME280;41674;52.290;-1.474;2023-02-28T06:17:21;102876.24;;;5.23;86.44
55755;BME280;41674;52.290;-1.474;2023-02-28T06:19:51;102877.22;;;6.26;82.92
55755;BME280;41674;52.290;-1.474;2023-02-28T06:22:20;102874.11;;;6.02;83.79
55755;BME280;41674;52.290;-1.474;2023-02-28T06:24:49;102873.75;;;5.88;83.56
55755;BME280;41674;52.290;-1.474;2023-02-28T06:27:19;102874.30;;;5.93;83.94
55755;BME280;41674;52.290;-1.474;2023-02-28T06:29:48;102877.15;;;5.74;82.78
55755;BME280;41674;52.290;-1.474;2023-02-28T06:32:18;102880.33;;;5.80;82.37
55755;BME280;41674;52.290;-1.474;2023-02-28T06:34:48;102885.27;;;5.00;85.42
55755;BME280;41674;52.290;-1.474;2023-02-28T06:37:18;102880.84;;;5.27;85.40
55755;BME280;41674;52.290;-1.474;2023-02-28T06:39:47;102880.16;;;5.60;84.17
55755;BME280;41674;52.290;-1.474;2023-02-28T06:42:17;102885.23;;;4.98;86.87
55755;BME280;41674;52.290;-1.474;2023-02-28T06:44:46;102883.94;;;5.36;85.49
55755;BME280;41674;52.290;-1.474;2023-02-28T06:47:16;102881.75;;;5.35;85.07
55755;BME280;41674;52.290;-1.474;2023-02-28T06:49:46;102884.62;;;5.93;83.02
55755;BME280;41674;52.290;-1.474;2023-02-28T06:52:16;102890.65;;;6.26;81.59
55755;BME280;41674;52.290;-1.474;2023-02-28T06:54:45;102886.52;;;6.29;80.70
55755;BME280;41674;52.290;-1.474;2023-02-28T06:57:14;102886.85;;;6.22;80.62
55755;BME280;41674;52.290;-1.474;2023-02-28T06:59:44;102886.69;;;6.53;79.67
55755;BME280;41674;52.290;-1.474;2023-02-28T07:02:13;102884.16;;;6.43;79.61
55755;BME280;41674;52.290;-1.474;2023-02-28T07:04:43;102880.45;;;6.49;80.06
55755;BME280;41674;52.290;-1.474;2023-02-28T07:07:12;102877.28;;;6.63;79.43
55755;BME280;41674;52.290;-1.474;2023-02-28T07:09:42;102879.77;;;6.52;78.85
55755;BME280;41674;52.290;-1.474;2023-02-28T07:12:11;102884.14;;;6.16;79.86
55755;BME280;41674;52.290;-1.474;2023-02-28T07:14:41;102891.54;;;6.24;82.20
55755;BME280;41674;52.290;-1.474;2023-02-28T07:17:11;102897.96;;;5.74;81.83
55755;BME280;41674;52.290;-1.474;2023-02-28T07:19:40;102895.23;;;6.39;80.30
55755;BME280;41674;52.290;-1.474;2023-02-28T07:22:10;102894.92;;;6.38;80.41
55755;BME280;41674;52.290;-1.474;2023-02-28T07:24:39;102896.70;;;6.63;79.49
55755;BME280;41674;52.290;-1.474;2023-02-28T07:27:09;102901.58;;;6.60;79.55
55755;BME280;41674;52.290;-1.474;2023-02-28T07:29:38;102904.26;;;6.61;79.75
55755;BME280;41674;52.290;-1.474;2023-02-28T07:32:08;102903.50;;;6.50;79.78
55755;BME280;41674;52.290;-1.474;2023-02-28T07:34:38;102905.07;;;5.72;82.58
55755;BME280;41674;52.290;-1.474;2023-02-28T07:37:07;102907.03;;;5.85;84.21
55755;BME280;41674;52.290;-1.474;2023-02-28T07:39:37;102901.76;;;5.93;84.59
55755;BME280;41674;52.290;-1.474;2023-02-28T07:42:06;102902.39;;;5.58;84.40
55755;BME280;41674;52.290;-1.474;2023-02-28T07:44:36;102903.93;;;5.55;86.05
55755;BME280;41674;52.290;-1.474;2023-02-28T07:47:06;102904.99;;;5.91;85.55
55755;BME280;41674;52.290;-1.474;2023-02-28T07:49:35;102908.67;;;5.82;85.94
55755;BME280;41674;52.290;-1.474;2023-02-28T07:52:05;102909.17;;;5.88;85.20
55755;BME280;41674;52.290;-1.474;2023-02-28T07:54:48;102912.05;;;5.47;87.92
55755;BME280;41674;52.290;-1.474;2023-02-28T07:57:03;102912.26;;;5.67;85.04
55755;BME280;41674;52.290;-1.474;2023-02-28T07:59:33;102913.50;;;6.44;84.57
55755;BME280;41674;52.290;-1.474;2023-02-28T08:02:02;102911.62;;;6.08;84.07
55755;BME280;41674;52.290;-1.474;2023-02-28T08:04:32;102914.82;;;6.04;83.70
55755;BME280;41674;52.290;-1.474;2023-02-28T08:07:00;102912.09;;;6.58;82.58
55755;BME280;41674;52.290;-1.474;2023-02-28T08:09:29;102911.97;;;6.38;83.36
55755;BME280;41674;52.290;-1.474;2023-02-28T08:14:29;102913.34;;;5.83;84.19
55755;BME280;41674;52.290;-1.474;2023-02-28T08:16:59;102915.30;;;5.69;83.53
55755;BME280;41674;52.290;-1.474;2023-02-28T08:19:28;102918.42;;;5.87;83.18
55755;BME280;41674;52.290;-1.474;2023-02-28T08:21:58;102917.77;;;6.05;83.86
55755;BME280;41674;52.290;-1.474;2023-02-28T08:24:27;102915.78;;;5.31;86.77
55755;BME280;41674;52.290;-1.474;2023-02-28T08:26:56;102912.60;;;5.33;87.23
55755;BME280;41674;52.290;-1.474;2023-02-28T08:29:26;102911.67;;;5.91;85.88
55755;BME280;41674;52.290;-1.474;2023-02-28T08:31:55;102912.01;;;6.17;84.98
55755;BME280;41674;52.290;-1.474;2023-02-28T08:34:24;102914.44;;;6.16;85.26
55755;BME280;41674;52.290;-1.474;2023-02-28T08:36:53;102916.24;;;5.69;88.88
55755;BME280;41674;52.290;-1.474;2023-02-28T08:39:23;102915.12;;;3.98;95.40
55755;BME280;41674;52.290;-1.474;2023-02-28T08:41:52;102911.92;;;5.51;90.50
55755;BME280;41674;52.290;-1.474;2023-02-28T08:44:21;102913.78;;;5.14;92.58
55755;BME280;41674;52.290;-1.474;2023-02-28T08:46:50;102913.86;;;5.42;91.55
55755;BME280;41674;52.290;-1.474;2023-02-28T08:49:19;102911.63;;;6.00;89.81
55755;BME280;41674;52.290;-1.474;2023-02-28T08:51:49;102913.97;;;5.18;92.45
55755;BME280;41674;52.290;-1.474;2023-02-28T08:54:19;102915.78;;;5.70;89.07
55755;BME280;41674;52.290;-1.474;2023-02-28T08:56:49;102913.77;;;6.14;89.66
55755;BME280;41674;52.290;-1.474;2023-02-28T08:59:18;102912.90;;;5.74;89.50
55755;BME280;41674;52.290;-1.474;2023-02-28T09:01:47;102912.94;;;5.93;88.86
55755;BME280;41674;52.290;-1.474;2023-02-28T09:04:17;102909.12;;;5.87;89.20
55755;BME280;41674;52.290;-1.474;2023-02-28T09:06:46;102909.85;;;4.77;91.62
55755;BME280;41674;52.290;-1.474;2023-02-28T09:09:15;102905.91;;;6.55;87.88
55755;BME280;41674;52.290;-1.474;2023-02-28T09:11:45;102909.13;;;5.16;90.84
55755;BME280;41674;52.290;-1.474;2023-02-28T09:14:14;102906.30;;;5.54;91.34
55755;BME280;41674;52.290;-1.474;2023-02-28T09:16:43;102904.48;;;6.25;89.41
55755;BME280;41674;52.290;-1.474;2023-02-28T09:19:13;102905.70;;;6.08;88.91
55755;BME280;41674;52.290;-1.474;2023-02-28T09:21:42;102906.77;;;5.62;90.21
55755;BME280;41674;52.290;-1.474;2023-02-28T09:24:11;102909.13;;;5.62;91.19
55755;BME280;41674;52.290;-1.474;2023-02-28T09:26:40;102909.32;;;5.78;90.01
55755;BME280;41674;52.290;-1.474;2023-02-28T09:29:10;102912.08;;;6.11;91.07
55755;BME280;41674;52.290;-1.474;2023-02-28T09:31:39;102910.29;;;6.43;90.11
55755;BME280;41674;52.290;-1.474;2023-02-28T09:34:09;102912.17;;;5.40;92.49
55755;BME280;41674;52.290;-1.474;2023-02-28T09:36:38;102911.21;;;5.51;95.28
55755;BME280;41674;52.290;-1.474;2023-02-28T09:39:08;102908.38;;;5.69;92.14
55755;BME280;41674;52.290;-1.474;2023-02-28T09:41:40;102907.28;;;6.00;91.35
55755;BME280;41674;52.290;-1.474;2023-02-28T09:44:09;102904.68;;;6.25;90.91
55755;BME280;41674;52.290;-1.474;2023-02-28T09:46:38;102903.97;;;6.52;89.66
55755;BME280;41674;52.290;-1.474;2023-02-28T09:49:10;102901.08;;;6.36;90.05
55755;BME280;41674;52.290;-1.474;2023-02-28T09:51:43;102905.56;;;5.65;93.32
55755;BME280;41674;52.290;-1.474;2023-02-28T09:54:05;102909.21;;;4.68;98.17
55755;BME280;41674;52.290;-1.474;2023-02-28T09:56:39;102904.40;;;6.04;93.94
55755;BME280;41674;52.290;-1.474;2023-02-28T09:59:11;102907.81;;;5.68;96.69
55755;BME280;41674;52.290;-1.474;2023-02-28T10:01:38;102906.52;;;6.49;93.80
55755;BME280;41674;52.290;-1.474;2023-02-28T10:04:08;102901.35;;;6.30;92.35
55755;BME280;41674;52.290;-1.474;2023-02-28T10:06:35;102898.21;;;6.21;92.84
55755;BME280;41674;52.290;-1.474;2023-02-28T10:09:04;102901.08;;;6.14;92.75
55755;BME280;41674;52.290;-1.474;2023-02-28T10:11:33;102903.18;;;5.61;94.94
55755;BME280;41674;52.290;-1.474;2023-02-28T10:14:02;102904.82;;;4.82;96.92
55755;BME280;41674;52.290;-1.474;2023-02-28T10:16:32;102896.88;;;6.25;92.78
55755;BME280;41674;52.290;-1.474;2023-02-28T10:19:04;102899.62;;;5.75;93.62
55755;BME280;41674;52.290;-1.474;2023-02-28T10:21:38;102900.97;;;4.69;99.92
55755;BME280;41674;52.290;-1.474;2023-02-28T10:24:05;102898.87;;;5.43;97.05
55755;BME280;41674;52.290;-1.474;2023-02-28T10:26:29;102898.57;;;4.86;96.79
55755;BME280;41674;52.290;-1.474;2023-02-28T10:28:58;102903.05;;;5.22;97.68
55755;BME280;41674;52.290;-1.474;2023-02-28T10:31:27;102914.71;;;3.40;100.00
55755;BME280;41674;52.290;-1.474;2023-02-28T10:33:56;102905.24;;;4.13;100.00
55755;BME280;41674;52.290;-1.474;2023-02-28T10:36:25;102903.73;;;4.36;100.00
55755;BME280;41674;52.290;-1.474;2023-02-28T10:38:54;102904.63;;;5.11;98.99
55755;BME280;41674;52.290;-1.474;2023-02-28T10:41:28;102903.60;;;4.88;98.96
55755;BME280;41674;52.290;-1.474;2023-02-28T10:46:23;102903.69;;;4.33;98.90
55755;BME280;41674;52.290;-1.474;2023-02-28T10:49:02;102898.21;;;4.82;97.74
55755;BME280;41674;52.290;-1.474;2023-02-28T10:51:22;102891.76;;;5.39;96.07
55755;BME280;41674;52.290;-1.474;2023-02-28T10:53:52;102892.16;;;5.63;94.10
55755;BME280;41674;52.290;-1.474;2023-02-28T10:56:23;102889.15;;;5.49;93.03
55755;BME280;41674;52.290;-1.474;2023-02-28T10:58:54;102888.99;;;6.07;92.61
55755;BME280;41674;52.290;-1.474;2023-02-28T11:01:23;102888.07;;;5.73;93.49
55755;BME280;41674;52.290;-1.474;2023-02-28T11:03:51;102887.78;;;4.99;93.99
55755;BME280;41674;52.290;-1.474;2023-02-28T11:06:21;102884.78;;;6.09;90.48
55755;BME280;41674;52.290;-1.474;2023-02-28T11:08:52;102887.37;;;4.82;93.01
55755;BME280;41674;52.290;-1.474;2023-02-28T11:11:19;102886.56;;;5.00;96.13
55755;BME280;41674;52.290;-1.474;2023-02-28T11:13:50;102882.35;;;5.27;93.42
55755;BME280;41674;52.290;-1.474;2023-02-28T11:16:17;102877.80;;;5.38;92.28
55755;BME280;41674;52.290;-1.474;2023-02-28T11:18:49;102884.82;;;4.39;95.11
55755;BME280;41674;52.290;-1.474;2023-02-28T11:21:20;102883.82;;;4.97;95.08
55755;BME280;41674;52.290;-1.474;2023-02-28T11:23:48;102876.92;;;4.78;100.00
55755;BME280;41674;52.290;-1.474;2023-02-28T11:26:16;102871.87;;;4.90;99.14
55755;BME280;41674;52.290;-1.474;2023-02-28T11:28:47;102865.78;;;4.61;99.14
55755;BME280;41674;52.290;-1.474;2023-02-28T11:31:17;102859.89;;;5.15;99.12
55755;BME280;41674;52.290;-1.474;2023-02-28T11:33:46;102851.67;;;5.76;96.95
55755;BME280;41674;52.290;-1.474;2023-02-28T11:36:17;102853.02;;;6.35;91.65
55755;BME280;41674;52.290;-1.474;2023-02-28T11:38:43;102852.31;;;5.96;92.03
55755;BME280;41674;52.290;-1.474;2023-02-28T11:41:29;102853.20;;;6.51;90.55
55755;BME280;41674;52.290;-1.474;2023-02-28T11:43:55;102857.32;;;7.49;85.27
55755;BME280;41674;52.290;-1.474;2023-02-28T11:46:22;102860.98;;;6.48;87.84
55755;BME280;41674;52.290;-1.474;2023-02-28T11:48:50;102856.37;;;5.79;90.56
55755;BME280;41674;52.290;-1.474;2023-02-28T11:51:18;102853.60;;;5.95;88.53
55755;BME280;41674;52.290;-1.474;2023-02-28T11:53:51;102855.08;;;7.24;85.06
55755;BME280;41674;52.290;-1.474;2023-02-28T11:56:14;102847.89;;;7.64;83.71
55755;BME280;41674;52.290;-1.474;2023-02-28T11:58:47;102851.84;;;5.34;91.94
55755;BME280;41674;52.290;-1.474;2023-02-28T12:01:18;102848.56;;;4.69;95.50
55755;BME280;41674;52.290;-1.474;2023-02-28T12:03:45;102849.04;;;4.98;95.30
55755;BME280;41674;52.290;-1.474;2023-02-28T12:06:17;102846.07;;;5.10;95.59
55755;BME280;41674;52.290;-1.474;2023-02-28T12:08:47;102844.13;;;6.02;92.52
55755;BME280;41674;52.290;-1.474;2023-02-28T12:11:13;102839.91;;;5.69;92.52
55755;BME280;41674;52.290;-1.474;2023-02-28T12:13:48;102841.31;;;6.12;92.30
55755;BME280;41674;52.290;-1.474;2023-02-28T12:16:19;102839.65;;;6.41;88.80
55755;BME280;41674;52.290;-1.474;2023-02-28T12:18:47;102838.56;;;6.09;88.50
55755;BME280;41674;52.290;-1.474;2023-02-28T12:21:14;102834.06;;;5.14;91.05
55755;BME280;41674;52.290;-1.474;2023-02-28T12:23:52;102829.75;;;5.91;92.37
55755;BME280;41674;52.290;-1.474;2023-02-28T12:26:14;102830.83;;;6.02;93.59
55755;BME280;41674;52.290;-1.474;2023-02-28T12:28:40;102829.06;;;6.06;95.02
55755;BME280;41674;52.290;-1.474;2023-02-28T12:31:09;102828.31;;;5.16;99.34
55755;BME280;41674;52.290;-1.474;2023-02-28T12:33:39;102832.36;;;4.75;100.00
55755;BME280;41674;52.290;-1.474;2023-02-28T12:36:10;102829.51;;;4.80;100.00
55755;BME280;41674;52.290;-1.474;2023-02-28T12:38:38;102826.32;;;5.40;99.90
55755;BME280;41674;52.290;-1.474;2023-02-28T12:41:08;102822.05;;;5.19;100.00
55755;BME280;41674;52.290;-1.474;2023-02-28T12:43:37;102819.84;;;4.87;100.00
55755;BME280;41674;52.290;-1.474;2023-02-28T12:46:09;102813.86;;;5.69;100.00
55755;BME280;41674;52.290;-1.474;2023-02-28T12:48:39;102817.73;;;5.17;100.00
55755;BME280;41674;52.290;-1.474;2023-02-28T12:51:03;102812.77;;;5.13;100.00
55755;BME280;41674;52.290;-1.474;2023-02-28T12:53:40;102807.12;;;5.42;100.00
55755;BME280;41674;52.290;-1.474;2023-02-28T12:56:12;102809.70;;;4.79;100.00
55755;BME280;41674;52.290;-1.474;2023-02-28T12:58:35;102800.80;;;5.22;100.00
55755;BME280;41674;52.290;-1.474;2023-02-28T13:03:44;102793.89;;;5.63;100.00
55755;BME280;41674;52.290;-1.474;2023-02-28T13:08:39;102797.83;;;5.15;100.00
55755;BME280;41674;52.290;-1.474;2023-02-28T13:11:00;102802.17;;;5.42;100.00
55755;BME280;41674;52.290;-1.474;2023-02-28T13:13:31;102799.34;;;5.04;100.00
55755;BME280;41674;52.290;-1.474;2023-02-28T13:16:02;102800.45;;;5.03;100.00